sensor_id;sensor_type;location;lat;lon;timestamp;pressure;altitude;pressure_sealevel;temperature;humidity
64064;BME280;50314;50.618;10.642;2023-03-12T00:01:35;96248.28;;;19.11;18.67
64064;BME280;50314;50.618;10.642;2023-03-12T00:04:02;96253.34;;;19.06;18.86
64064;BME280;50314;50.618;10.642;2023-03-12T00:06:27;96246.69;;;19.02;19.10
64064;BME280;50314;50.618;10.642;2023-03-12T00:08:53;96256.22;;;18.96;18.94
64064;BME280;50314;50.618;10.642;2023-03-12T00:11:19;96262.94;;;18.92;18.76
64064;BME280;50314;50.618;10.642;2023-03-12T00:13:53;96262.13;;;18.84;19.30
64064;BME280;50314;50.618;10.642;2023-03-12T00:16:19;96258.66;;;18.83;18.87
64064;BME280;50314;50.618;10.642;2023-03-12T00:18:50;96258.53;;;18.76;18.88
64064;BME280;50314;50.618;10.642;2023-03-12T00:21:17;96257.84;;;18.74;19.05
64064;BME280;50314;50.618;10.642;2023-03-12T00:23:43;96255.53;;;18.71;18.87
64064;BME280;50314;50.618;10.642;2023-03-12T00:26:11;96259.53;;;18.67;19.38
64064;BME280;50314;50.618;10.642;2023-03-12T00:28:37;96263.56;;;18.63;19.23
64064;BME280;50314;50.618;10.642;2023-03-12T00:31:22;96256.44;;;18.55;18.94
64064;BME280;50314;50.618;10.642;2023-03-12T00:33:47;96266.28;;;18.55;19.17
64064;BME280;50314;50.618;10.642;2023-03-12T00:36:17;96268.47;;;18.51;19.40
64064;BME280;50314;50.618;10.642;2023-03-12T00:38:43;96262.81;;;18.46;19.09
64064;BME280;50314;50.618;10.642;2023-03-12T00:41:09;96255.00;;;18.45;19.37
64064;BME280;50314;50.618;10.642;2023-03-12T00:43:35;96257.00;;;18.43;19.45
64064;BME280;50314;50.618;10.642;2023-03-12T00:46:00;96257.34;;;18.40;19.38
64064;BME280;50314;50.618;10.642;2023-03-12T00:48:26;96263.00;;;18.37;18.98
64064;BME280;50314;50.618;10.642;2023-03-12T00:50:51;96256.38;;;18.33;19.32
64064;BME280;50314;50.618;10.642;2023-03-12T00:53:17;96255.06;;;18.28;19.40
64064;BME280;50314;50.618;10.642;2023-03-12T00:55:42;96257.06;;;18.26;19.46
64064;BME280;50314;50.618;10.642;2023-03-12T00:58:08;96256.41;;;18.24;19.17
64064;BME280;50314;50.618;10.642;2023-03-12T01:00:33;96247.94;;;18.21;19.05
64064;BME280;50314;50.618;10.642;2023-03-12T01:02:59;96251.78;;;18.18;19.03
64064;BME280;50314;50.618;10.642;2023-03-12T01:05:24;96248.44;;;18.16;19.42
64064;BME280;50314;50.618;10.642;2023-03-12T01:07:50;96247.94;;;18.13;19.28
64064;BME280;50314;50.618;10.642;2023-03-12T01:10:17;96241.28;;;18.08;19.35
64064;BME280;50314;50.618;10.642;2023-03-12T01:12:43;96248.78;;;18.05;19.51
64064;BME280;50314;50.618;10.642;2023-03-12T01:15:12;96249.31;;;18.00;19.46
64064;BME280;50314;50.618;10.642;2023-03-12T01:17:39;96244.13;;;17.99;19.59
64064;BME280;50314;50.618;10.642;2023-03-12T01:20:05;96244.47;;;17.96;19.13
64064;BME280;50314;50.618;10.642;2023-03-12T01:22:32;96242.13;;;17.93;19.40
64064;BME280;50314;50.618;10.642;2023-03-12T01:24:58;96245.31;;;17.88;19.31
64064;BME280;50314;50.618;10.642;2023-03-12T01:27:23;96246.50;;;17.85;19.53
64064;BME280;50314;50.618;10.642;2023-03-12T01:29:49;96249.50;;;17.82;19.59
64064;BME280;50314;50.618;10.642;2023-03-12T01:32:14;96251.50;;;17.80;19.48
64064;BME280;50314;50.618;10.642;2023-03-12T01:34:41;96241.19;;;17.77;19.16
64064;BME280;50314;50.618;10.642;2023-03-12T01:37:07;96244.88;;;17.76;19.44
64064;BME280;50314;50.618;10.642;2023-03-12T01:39:33;96245.22;;;17.73;19.47
64064;BME280;50314;50.618;10.642;2023-03-12T01:41:58;96239.22;;;17.71;19.56
64064;BME280;50314;50.618;10.642;2023-03-12T01:44:26;96238.53;;;17.69;19.57
64064;BME280;50314;50.618;10.642;2023-03-12T01:46:52;96229.91;;;17.67;19.41
64064;BME280;50314;50.618;10.642;2023-03-12T01:56:42;96230.59;;;17.53;19.75
64064;BME280;50314;50.618;10.642;2023-03-12T01:59:16;96235.41;;;17.49;19.49
64064;BME280;50314;50.618;10.642;2023-03-12T02:01:44;96232.91;;;17.48;19.42
64064;BME280;50314;50.618;10.642;2023-03-12T02:04:11;96233.88;;;17.47;19.70
64064;BME280;50314;50.618;10.642;2023-03-12T02:06:51;96228.06;;;17.43;19.63
64064;BME280;50314;50.618;10.642;2023-03-12T02:09:19;96238.22;;;17.40;19.74
64064;BME280;50314;50.618;10.642;2023-03-12T02:11:45;96236.88;;;17.35;19.56
64064;BME280;50314;50.618;10.642;2023-03-12T02:14:11;96243.22;;;17.34;19.68
64064;BME280;50314;50.618;10.642;2023-03-12T02:16:37;96239.22;;;17.30;19.69
64064;BME280;50314;50.618;10.642;2023-03-12T02:19:03;96234.22;;;17.27;19.59
64064;BME280;50314;50.618;10.642;2023-03-12T02:21:33;96235.56;;;17.23;19.76
64064;BME280;50314;50.618;10.642;2023-03-12T02:26:29;96229.91;;;17.18;19.71
64064;BME280;50314;50.618;10.642;2023-03-12T02:28:55;96224.91;;;17.15;19.75
64064;BME280;50314;50.618;10.642;2023-03-12T02:31:25;96225.91;;;17.14;19.77
64064;BME280;50314;50.618;10.642;2023-03-12T02:33:52;96220.78;;;17.12;19.88
64064;BME280;50314;50.618;10.642;2023-03-12T02:36:20;96231.72;;;17.01;19.99
64064;BME280;50314;50.618;10.642;2023-03-12T02:38:47;96233.22;;;17.04;19.92
64064;BME280;50314;50.618;10.642;2023-03-12T02:41:20;96228.22;;;17.01;19.91
64064;BME280;50314;50.618;10.642;2023-03-12T02:44:04;96236.53;;;16.98;19.91
64064;BME280;50314;50.618;10.642;2023-03-12T02:46:36;96231.22;;;16.98;19.85
64064;BME280;50314;50.618;10.642;2023-03-12T02:49:04;96230.56;;;16.96;19.89
64064;BME280;50314;50.618;10.642;2023-03-12T02:51:29;96234.19;;;16.95;19.96
64064;BME280;50314;50.618;10.642;2023-03-12T02:53:55;96226.41;;;16.93;19.81
64064;BME280;50314;50.618;10.642;2023-03-12T02:56:25;96230.41;;;16.89;19.98
64064;BME280;50314;50.618;10.642;2023-03-12T02:58:51;96222.56;;;16.87;20.00
64064;BME280;50314;50.618;10.642;2023-03-12T03:01:20;96219.25;;;16.85;20.08
64064;BME280;50314;50.618;10.642;2023-03-12T03:03:46;96221.22;;;16.83;19.92
64064;BME280;50314;50.618;10.642;2023-03-12T03:06:12;96216.25;;;16.80;20.00
64064;BME280;50314;50.618;10.642;2023-03-12T03:08:38;96221.84;;;16.77;20.21
64064;BME280;50314;50.618;10.642;2023-03-12T03:11:04;96218.53;;;16.75;20.18
64064;BME280;50314;50.618;10.642;2023-03-12T03:13:30;96215.34;;;16.72;20.20
64064;BME280;50314;50.618;10.642;2023-03-12T03:15:55;96227.81;;;16.71;20.00
64064;BME280;50314;50.618;10.642;2023-03-12T03:18:24;96224.50;;;16.69;20.02
64064;BME280;50314;50.618;10.642;2023-03-12T03:20:57;96231.16;;;16.65;20.10
64064;BME280;50314;50.618;10.642;2023-03-12T03:23:22;96230.16;;;16.66;20.15
64064;BME280;50314;50.618;10.642;2023-03-12T03:25:50;96228.81;;;16.62;20.16
64064;BME280;50314;50.618;10.642;2023-03-12T03:28:18;96228.97;;;16.60;20.06
64064;BME280;50314;50.618;10.642;2023-03-12T03:30:44;96223.81;;;16.59;20.29
64064;BME280;50314;50.618;10.642;2023-03-12T03:33:10;96225.78;;;16.57;20.18
64064;BME280;50314;50.618;10.642;2023-03-12T03:35:35;96225.13;;;16.55;19.98
64064;BME280;50314;50.618;10.642;2023-03-12T03:38:01;96227.78;;;16.55;20.16
64064;BME280;50314;50.618;10.642;2023-03-12T03:40:26;96228.94;;;16.52;20.09
64064;BME280;50314;50.618;10.642;2023-03-12T03:42:52;96237.25;;;16.49;20.25
64064;BME280;50314;50.618;10.642;2023-03-12T03:45:17;96237.56;;;16.46;20.33
64064;BME280;50314;50.618;10.642;2023-03-12T03:47:44;96232.41;;;16.44;20.10
64064;BME280;50314;50.618;10.642;2023-03-12T03:50:10;96233.56;;;16.42;20.30
64064;BME280;50314;50.618;10.642;2023-03-12T03:52:35;96231.88;;;16.41;20.18
64064;BME280;50314;50.618;10.642;2023-03-12T03:55:01;96232.22;;;16.38;20.19
64064;BME280;50314;50.618;10.642;2023-03-12T03:57:27;96236.03;;;16.35;20.36
64064;BME280;50314;50.618;10.642;2023-03-12T03:59:53;96237.19;;;16.33;20.48
64064;BME280;50314;50.618;10.642;2023-03-12T04:02:18;96236.50;;;16.31;20.20
64064;BME280;50314;50.618;10.642;2023-03-12T04:04:44;96236.50;;;16.31;20.40
64064;BME280;50314;50.618;10.642;2023-03-12T04:07:09;96231.50;;;16.28;20.61
64064;BME280;50314;50.618;10.642;2023-03-12T04:09:35;96228.19;;;16.26;20.40
64064;BME280;50314;50.618;10.642;2023-03-12T04:12:01;96235.47;;;16.24;20.09
64064;BME280;50314;50.618;10.642;2023-03-12T04:14:26;96227.69;;;16.22;20.28
64064;BME280;50314;50.618;10.642;2023-03-12T04:16:54;96229.34;;;16.23;20.46
64064;BME280;50314;50.618;10.642;2023-03-12T04:19:20;96228.53;;;16.23;20.38
64064;BME280;50314;50.618;10.642;2023-03-12T04:21:48;96230.50;;;16.20;20.19
64064;BME280;50314;50.618;10.642;2023-03-12T04:24:15;96236.63;;;16.21;20.31
64064;BME280;50314;50.618;10.642;2023-03-12T04:26:41;96234.16;;;16.19;20.22
64064;BME280;50314;50.618;10.642;2023-03-12T04:29:07;96228.16;;;16.17;20.46
64064;BME280;50314;50.618;10.642;2023-03-12T04:31:32;96227.31;;;16.17;20.32
64064;BME280;50314;50.618;10.642;2023-03-12T04:33:58;96225.66;;;16.16;20.27
64064;BME280;50314;50.618;10.642;2023-03-12T04:36:24;96237.13;;;16.16;20.39
64064;BME280;50314;50.618;10.642;2023-03-12T04:38:49;96232.81;;;16.15;20.34
64064;BME280;50314;50.618;10.642;2023-03-12T04:41:15;96232.13;;;16.13;20.40
64064;BME280;50314;50.618;10.642;2023-03-12T04:43:41;96225.25;;;16.11;20.39
64064;BME280;50314;50.618;10.642;2023-03-12T04:46:07;96236.06;;;16.09;20.46
64064;BME280;50314;50.618;10.642;2023-03-12T04:48:34;96223.94;;;16.07;20.64
64064;BME280;50314;50.618;10.642;2023-03-12T04:51:00;96222.28;;;16.06;20.49
64064;BME280;50314;50.618;10.642;2023-03-12T04:53:26;96224.09;;;16.05;20.57
64064;BME280;50314;50.618;10.642;2023-03-12T04:55:51;96226.75;;;16.05;20.63
64064;BME280;50314;50.618;10.642;2023-03-12T04:58:17;96228.59;;;16.05;20.39
64064;BME280;50314;50.618;10.642;2023-03-12T05:00:44;96230.41;;;16.04;20.35
64064;BME280;50314;50.618;10.642;2023-03-12T05:03:09;96232.38;;;16.02;20.63
64064;BME280;50314;50.618;10.642;2023-03-12T05:05:35;96228.22;;;16.00;20.38
64064;BME280;50314;50.618;10.642;2023-03-12T05:08:01;96226.38;;;16.00;20.59
64064;BME280;50314;50.618;10.642;2023-03-12T05:10:27;96222.06;;;15.99;20.70
64064;BME280;50314;50.618;10.642;2023-03-12T05:12:52;96224.91;;;15.97;20.59
64064;BME280;50314;50.618;10.642;2023-03-12T05:15:18;96221.56;;;15.95;20.52
64064;BME280;50314;50.618;10.642;2023-03-12T05:17:44;96225.03;;;15.96;20.42
64064;BME280;50314;50.618;10.642;2023-03-12T05:20:10;96225.22;;;15.94;20.61
64064;BME280;50314;50.618;10.642;2023-03-12T05:22:35;96230.66;;;15.93;20.42
64064;BME280;50314;50.618;10.642;2023-03-12T05:25:01;96227.19;;;15.92;20.48
64064;BME280;50314;50.618;10.642;2023-03-12T05:27:27;96221.03;;;15.92;20.70
64064;BME280;50314;50.618;10.642;2023-03-12T05:29:53;96224.84;;;15.89;20.68
64064;BME280;50314;50.618;10.642;2023-03-12T05:32:18;96228.50;;;15.88;20.42
64064;BME280;50314;50.618;10.642;2023-03-12T05:34:43;96231.28;;;15.87;20.66
64064;BME280;50314;50.618;10.642;2023-03-12T05:37:09;96230.78;;;15.83;20.61
64064;BME280;50314;50.618;10.642;2023-03-12T05:39:34;96229.94;;;15.83;20.88
64064;BME280;50314;50.618;10.642;2023-03-12T05:42:00;96232.47;;;15.84;20.97
64064;BME280;50314;50.618;10.642;2023-03-12T05:44:26;96231.78;;;15.82;20.64
64064;BME280;50314;50.618;10.642;2023-03-12T05:46:52;96235.44;;;15.81;20.92
64064;BME280;50314;50.618;10.642;2023-03-12T05:49:19;96221.16;;;15.82;20.73
64064;BME280;50314;50.618;10.642;2023-03-12T05:51:48;96226.78;;;15.79;20.66
64064;BME280;50314;50.618;10.642;2023-03-12T05:54:16;96222.28;;;15.80;20.86
64064;BME280;50314;50.618;10.642;2023-03-12T05:56:42;96219.81;;;15.78;20.70
64064;BME280;50314;50.618;10.642;2023-03-12T05:59:08;96222.47;;;15.78;20.92
64064;BME280;50314;50.618;10.642;2023-03-12T06:01:35;96229.44;;;15.79;20.85
64064;BME280;50314;50.618;10.642;2023-03-12T06:04:00;96231.25;;;15.79;20.80
64064;BME280;50314;50.618;10.642;2023-03-12T06:06:26;96218.13;;;15.77;20.81
64064;BME280;50314;50.618;10.642;2023-03-12T06:08:53;96220.78;;;15.77;20.97
64064;BME280;50314;50.618;10.642;2023-03-12T06:11:19;96213.69;;;15.78;20.96
64064;BME280;50314;50.618;10.642;2023-03-12T06:13:44;96203.88;;;15.78;20.83
64064;BME280;50314;50.618;10.642;2023-03-12T06:16:15;96202.53;;;15.74;20.97
64064;BME280;50314;50.618;10.642;2023-03-12T06:18:41;96200.53;;;15.76;20.71
64064;BME280;50314;50.618;10.642;2023-03-12T06:21:16;96198.38;;;15.71;21.01
64064;BME280;50314;50.618;10.642;2023-03-12T06:23:43;96209.50;;;15.75;20.76
64064;BME280;50314;50.618;10.642;2023-03-12T06:26:09;96220.13;;;15.75;20.96
64064;BME280;50314;50.618;10.642;2023-03-12T06:28:35;96211.34;;;15.74;21.04
64064;BME280;50314;50.618;10.642;2023-03-12T06:31:00;96206.16;;;15.73;20.79
64064;BME280;50314;50.618;10.642;2023-03-12T06:33:26;96211.47;;;15.73;21.13
64064;BME280;50314;50.618;10.642;2023-03-12T06:35:56;96201.16;;;15.70;20.90
64064;BME280;50314;50.618;10.642;2023-03-12T06:38:22;96215.81;;;15.74;21.15
64064;BME280;50314;50.618;10.642;2023-03-12T06:40:56;96220.59;;;15.70;20.96
64064;BME280;50314;50.618;10.642;2023-03-12T06:43:23;96221.13;;;15.74;21.05
64064;BME280;50314;50.618;10.642;2023-03-12T06:45:49;96229.91;;;15.74;21.15
64064;BME280;50314;50.618;10.642;2023-03-12T06:48:14;96226.25;;;15.76;20.96
64064;BME280;50314;50.618;10.642;2023-03-12T06:50:40;96221.78;;;15.76;20.97
64064;BME280;50314;50.618;10.642;2023-03-12T06:53:05;96220.94;;;15.76;20.84
64064;BME280;50314;50.618;10.642;2023-03-12T06:55:30;96221.78;;;15.76;20.95
64064;BME280;50314;50.618;10.642;2023-03-12T06:57:56;96228.75;;;15.77;20.84
64064;BME280;50314;50.618;10.642;2023-03-12T07:00:21;96230.56;;;15.77;21.06
64064;BME280;50314;50.618;10.642;2023-03-12T07:02:47;96222.63;;;15.77;20.98
64064;BME280;50314;50.618;10.642;2023-03-12T07:05:12;96218.13;;;15.77;20.92
64064;BME280;50314;50.618;10.642;2023-03-12T07:07:38;96226.78;;;15.79;21.19
64064;BME280;50314;50.618;10.642;2023-03-12T07:10:04;96223.13;;;15.80;20.96
64064;BME280;50314;50.618;10.642;2023-03-12T07:12:31;96224.81;;;15.81;21.00
64064;BME280;50314;50.618;10.642;2023-03-12T07:14:57;96219.50;;;15.81;21.18
64064;BME280;50314;50.618;10.642;2023-03-12T07:17:22;96220.16;;;15.83;20.94
64064;BME280;50314;50.618;10.642;2023-03-12T07:19:48;96221.84;;;15.84;21.33
64064;BME280;50314;50.618;10.642;2023-03-12T07:22:14;96218.19;;;15.85;21.21
64064;BME280;50314;50.618;10.642;2023-03-12T07:24:39;96220.84;;;15.85;21.11
64064;BME280;50314;50.618;10.642;2023-03-12T07:27:05;96210.22;;;15.85;21.10
64064;BME280;50314;50.618;10.642;2023-03-12T07:29:30;96222.50;;;15.86;21.03
64064;BME280;50314;50.618;10.642;2023-03-12T07:31:55;96227.66;;;15.88;21.16
64064;BME280;50314;50.618;10.642;2023-03-12T07:34:21;96222.19;;;15.89;21.16
64064;BME280;50314;50.618;10.642;2023-03-12T07:36:46;96221.19;;;15.90;20.96
64064;BME280;50314;50.618;10.642;2023-03-12T07:39:12;96218.38;;;15.92;21.27
64064;BME280;50314;50.618;10.642;2023-03-12T07:41:37;96208.59;;;15.92;21.37
64064;BME280;50314;50.618;10.642;2023-03-12T07:44:03;96211.06;;;15.94;21.28
64064;BME280;50314;50.618;10.642;2023-03-12T07:46:29;96210.94;;;15.95;21.36
64064;BME280;50314;50.618;10.642;2023-03-12T07:48:55;96213.59;;;15.95;21.04
64064;BME280;50314;50.618;10.642;2023-03-12T07:51:21;96212.59;;;15.96;21.04
64064;BME280;50314;50.618;10.642;2023-03-12T07:53:46;96205.31;;;15.98;21.28
64064;BME280;50314;50.618;10.642;2023-03-12T07:56:12;96212.28;;;16.00;21.30
64064;BME280;50314;50.618;10.642;2023-03-12T07:58:37;96202.34;;;16.02;21.22
64064;BME280;50314;50.618;10.642;2023-03-12T08:01:03;96194.38;;;16.02;21.12
64064;BME280;50314;50.618;10.642;2023-03-12T08:03:29;96202.03;;;16.05;21.13
64064;BME280;50314;50.618;10.642;2023-03-12T08:05:57;96191.22;;;16.06;21.25
64064;BME280;50314;50.618;10.642;2023-03-12T08:08:23;96199.06;;;16.08;21.37
64064;BME280;50314;50.618;10.642;2023-03-12T08:10:48;96198.03;;;16.09;21.27
64064;BME280;50314;50.618;10.642;2023-03-12T08:13:14;96191.72;;;16.10;21.27
64064;BME280;50314;50.618;10.642;2023-03-12T08:15:39;96195.09;;;16.12;21.25
64064;BME280;50314;50.618;10.642;2023-03-12T08:18:05;96198.41;;;16.14;21.26
64064;BME280;50314;50.618;10.642;2023-03-12T08:20:30;96200.09;;;16.15;21.25
64064;BME280;50314;50.618;10.642;2023-03-12T08:22:56;96194.47;;;16.18;21.15
64064;BME280;50314;50.618;10.642;2023-03-12T08:25:21;96194.28;;;16.19;21.22
64064;BME280;50314;50.618;10.642;2023-03-12T08:27:48;96191.31;;;16.23;21.24
64064;BME280;50314;50.618;10.642;2023-03-12T08:30:14;96168.91;;;16.25;21.29
64064;BME280;50314;50.618;10.642;2023-03-12T08:32:40;96174.06;;;16.27;21.55
64064;BME280;50314;50.618;10.642;2023-03-12T08:35:05;96170.25;;;16.29;21.42
64064;BME280;50314;50.618;10.642;2023-03-12T08:37:31;96171.75;;;16.32;21.56
64064;BME280;50314;50.618;10.642;2023-03-12T08:39:57;96172.25;;;16.35;21.72
64064;BME280;50314;50.618;10.642;2023-03-12T08:42:22;96168.44;;;16.38;21.71
64064;BME280;50314;50.618;10.642;2023-03-12T08:44:48;96163.66;;;16.41;21.67
64064;BME280;50314;50.618;10.642;2023-03-12T08:47:13;96162.47;;;16.44;21.54
64064;BME280;50314;50.618;10.642;2023-03-12T08:49:39;96160.50;;;16.46;21.52
64064;BME280;50314;50.618;10.642;2023-03-12T08:52:04;96161.00;;;16.50;21.59
64064;BME280;50314;50.618;10.642;2023-03-12T08:54:29;96154.53;;;16.52;21.52
64064;BME280;50314;50.618;10.642;2023-03-12T08:56:55;96147.69;;;16.58;21.67
64064;BME280;50314;50.618;10.642;2023-03-12T08:59:20;96150.03;;;16.61;21.63
64064;BME280;50314;50.618;10.642;2023-03-12T09:01:48;96144.38;;;16.64;21.51
64064;BME280;50314;50.618;10.642;2023-03-12T09:04:14;96142.41;;;16.66;21.66
64064;BME280;50314;50.618;10.642;2023-03-12T09:06:39;96138.59;;;16.68;21.46
64064;BME280;50314;50.618;10.642;2023-03-12T09:09:05;96141.91;;;16.71;21.51
64064;BME280;50314;50.618;10.642;2023-03-12T09:11:34;96145.25;;;16.73;21.46
64064;BME280;50314;50.618;10.642;2023-03-12T09:14:00;96134.41;;;16.74;21.46
64064;BME280;50314;50.618;10.642;2023-03-12T09:16:26;96129.78;;;16.76;21.25
64064;BME280;50314;50.618;10.642;2023-03-12T09:18:52;96130.31;;;16.80;21.24
64064;BME280;50314;50.618;10.642;2023-03-12T09:21:18;96123.84;;;16.82;21.40
64064;BME280;50314;50.618;10.642;2023-03-12T09:23:43;96125.50;;;16.83;21.39
64064;BME280;50314;50.618;10.642;2023-03-12T09:26:10;96119.16;;;16.84;21.46
64064;BME280;50314;50.618;10.642;2023-03-12T09:28:36;96127.63;;;16.88;21.43
64064;BME280;50314;50.618;10.642;2023-03-12T09:31:02;96133.78;;;16.88;21.54
64064;BME280;50314;50.618;10.642;2023-03-12T09:33:28;96137.78;;;16.84;21.65
64064;BME280;50314;50.618;10.642;2023-03-12T09:35:57;96141.28;;;16.93;21.61
64064;BME280;50314;50.618;10.642;2023-03-12T09:38:23;96134.97;;;17.02;21.69
64064;BME280;50314;50.618;10.642;2023-03-12T09:40:49;96129.81;;;17.09;21.48
64064;BME280;50314;50.618;10.642;2023-03-12T09:43:26;96130.31;;;17.12;21.57
64064;BME280;50314;50.618;10.642;2023-03-12T09:45:53;96134.44;;;17.23;21.53
64064;BME280;50314;50.618;10.642;2023-03-12T09:48:33;96130.78;;;17.24;21.77
64064;BME280;50314;50.618;10.642;2023-03-12T09:51:20;96124.78;;;17.30;21.92
64064;BME280;50314;50.618;10.642;2023-03-12T09:53:53;96125.41;;;17.41;21.96
64064;BME280;50314;50.618;10.642;2023-03-12T09:56:21;96128.75;;;17.51;21.69
64064;BME280;50314;50.618;10.642;2023-03-12T09:58:47;96127.09;;;17.50;22.07
64064;BME280;50314;50.618;10.642;2023-03-12T10:01:34;96129.38;;;17.61;22.04
64064;BME280;50314;50.618;10.642;2023-03-12T10:09:44;96136.28;;;17.87;21.97
64064;BME280;50314;50.618;10.642;2023-03-12T10:21:28;96138.00;;;18.19;21.90
64064;BME280;50314;50.618;10.642;2023-03-12T10:24:23;96136.13;;;18.27;21.89
64064;BME280;50314;50.618;10.642;2023-03-12T10:26:56;96146.19;;;18.40;21.81
64064;BME280;50314;50.618;10.642;2023-03-12T10:29:31;96142.00;;;18.46;21.85
64064;BME280;50314;50.618;10.642;2023-03-12T10:34:39;96142.56;;;18.64;21.68
64064;BME280;50314;50.618;10.642;2023-03-12T10:39:53;96137.09;;;18.81;21.53
64064;BME280;50314;50.618;10.642;2023-03-12T10:42:25;96131.88;;;18.87;21.53
64064;BME280;50314;50.618;10.642;2023-03-12T10:44:55;96133.84;;;18.93;21.54
64064;BME280;50314;50.618;10.642;2023-03-12T10:47:42;96131.47;;;18.98;21.43
64064;BME280;50314;50.618;10.642;2023-03-12T10:50:38;96131.75;;;19.04;21.11
64064;BME280;50314;50.618;10.642;2023-03-12T10:53:27;96119.53;;;19.09;21.02
64064;BME280;50314;50.618;10.642;2023-03-12T10:56:08;96114.31;;;19.16;21.37
64064;BME280;50314;50.618;10.642;2023-03-12T10:58:42;96102.91;;;19.22;20.95
64064;BME280;50314;50.618;10.642;2023-03-12T11:01:28;96108.50;;;19.27;21.03
64064;BME280;50314;50.618;10.642;2023-03-12T11:04:17;96096.91;;;19.35;20.85
64064;BME280;50314;50.618;10.642;2023-03-12T11:09:38;96091.63;;;19.50;20.95
64064;BME280;50314;50.618;10.642;2023-03-12T11:12:28;96111.59;;;19.54;21.10
64064;BME280;50314;50.618;10.642;2023-03-12T11:14:55;96114.44;;;19.67;21.03
64064;BME280;50314;50.618;10.642;2023-03-12T11:17:23;96119.53;;;19.77;20.92
64064;BME280;50314;50.618;10.642;2023-03-12T11:19:49;96117.41;;;19.87;20.82
64064;BME280;50314;50.618;10.642;2023-03-12T11:22:30;96114.97;;;19.92;20.93
64064;BME280;50314;50.618;10.642;2023-03-12T11:25:04;96116.84;;;20.06;20.93
64064;BME280;50314;50.618;10.642;2023-03-12T11:27:42;96117.09;;;20.11;21.09
64064;BME280;50314;50.618;10.642;2023-03-12T11:30:16;96104.25;;;20.22;21.12
64064;BME280;50314;50.618;10.642;2023-03-12T11:32:47;96104.41;;;20.35;21.02
64064;BME280;50314;50.618;10.642;2023-03-12T11:35:17;96094.22;;;20.45;21.16
64064;BME280;50314;50.618;10.642;2023-03-12T11:38:15;96086.47;;;20.50;21.13
64064;BME280;50314;50.618;10.642;2023-03-12T11:49:11;96094.44;;;20.86;20.96
64064;BME280;50314;50.618;10.642;2023-03-12T11:51:56;96083.59;;;20.95;20.79
64064;BME280;50314;50.618;10.642;2023-03-12T11:54:47;96084.03;;;20.98;20.75
64064;BME280;50314;50.618;10.642;2023-03-12T12:00:15;96074.91;;;21.14;20.66
64064;BME280;50314;50.618;10.642;2023-03-12T12:02:47;96076.81;;;21.20;20.54
64064;BME280;50314;50.618;10.642;2023-03-12T12:16:31;96076.06;;;21.33;20.20
64064;BME280;50314;50.618;10.642;2023-03-12T12:19:22;96067.84;;;21.34;20.12
64064;BME280;50314;50.618;10.642;2023-03-12T12:30:47;96072.66;;;21.46;20.17
64064;BME280;50314;50.618;10.642;2023-03-12T12:36:13;96064.25;;;21.55;19.85
64064;BME280;50314;50.618;10.642;2023-03-12T12:38:43;96066.31;;;21.60;19.82
64064;BME280;50314;50.618;10.642;2023-03-12T12:41:22;96056.47;;;21.67;20.18
64064;BME280;50314;50.618;10.642;2023-03-12T12:43:56;96043.31;;;21.72;20.14
64064;BME280;50314;50.618;10.642;2023-03-12T12:46:33;96046.22;;;21.77;20.19
64064;BME280;50314;50.618;10.642;2023-03-12T12:49:10;96052.03;;;21.88;20.37
64064;BME280;50314;50.618;10.642;2023-03-12T12:51:40;96034.78;;;22.03;20.15
64064;BME280;50314;50.618;10.642;2023-03-12T12:57:16;96047.06;;;22.33;20.29
64064;BME280;50314;50.618;10.642;2023-03-12T13:02:38;96048.53;;;22.62;19.96
64064;BME280;50314;50.618;10.642;2023-03-12T13:05:21;96047.53;;;22.69;20.25
64064;BME280;50314;50.618;10.642;2023-03-12T13:07:46;96047.31;;;22.84;19.93
64064;BME280;50314;50.618;10.642;2023-03-12T13:13:12;96065.09;;;22.98;20.08
64064;BME280;50314;50.618;10.642;2023-03-12T13:15:42;96057.44;;;23.09;19.92
64064;BME280;50314;50.618;10.642;2023-03-12T13:18:23;96053.75;;;23.10;19.68
64064;BME280;50314;50.618;10.642;2023-03-12T13:23:37;96052.03;;;23.22;19.33
64064;BME280;50314;50.618;10.642;2023-03-12T13:26:22;96050.41;;;23.28;19.51
64064;BME280;50314;50.618;10.642;2023-03-12T13:33:56;96051.19;;;23.41;19.02
64064;BME280;50314;50.618;10.642;2023-03-12T13:36:26;96056.38;;;23.43;18.93
64064;BME280;50314;50.618;10.642;2023-03-12T13:38:58;96047.06;;;23.45;19.02
64064;BME280;50314;50.618;10.642;2023-03-12T13:43:55;96051.59;;;23.52;18.49
64064;BME280;50314;50.618;10.642;2023-03-12T13:46:28;96045.59;;;23.50;18.71
64064;BME280;50314;50.618;10.642;2023-03-12T13:49:01;96031.56;;;23.54;18.91
64064;BME280;50314;50.618;10.642;2023-03-12T13:51:27;96035.06;;;23.55;18.59
64064;BME280;50314;50.618;10.642;2023-03-12T13:53:57;96036.09;;;23.54;18.48
64064;BME280;50314;50.618;10.642;2023-03-12T13:56:29;96039.81;;;23.53;18.13
64064;BME280;50314;50.618;10.642;2023-03-12T13:59:05;96039.81;;;23.53;18.48
64064;BME280;50314;50.618;10.642;2023-03-12T14:01:36;96046.00;;;23.53;18.02
64064;BME280;50314;50.618;10.642;2023-03-12T14:04:06;96047.69;;;23.54;18.54
64064;BME280;50314;50.618;10.642;2023-03-12T14:12:11;96054.91;;;23.60;17.93
64064;BME280;50314;50.618;10.642;2023-03-12T14:17:25;96062.91;;;23.67;18.12
64064;BME280;50314;50.618;10.642;2023-03-12T14:20:02;96053.00;;;23.67;18.13
64064;BME280;50314;50.618;10.642;2023-03-12T14:22:32;96053.81;;;23.75;18.45
64064;BME280;50314;50.618;10.642;2023-03-12T14:27:38;96052.75;;;23.82;18.12
64064;BME280;50314;50.618;10.642;2023-03-12T14:32:39;96050.84;;;23.89;18.18
64064;BME280;50314;50.618;10.642;2023-03-12T14:35:17;96051.06;;;23.88;18.28
64064;BME280;50314;50.618;10.642;2023-03-12T14:37:51;96045.66;;;23.95;17.11